CW7375 Weather Reports


Display with metric or nautical units.
time (UTC)temp
F
wind
direction
speed
MPH
gust
MPH
rain 1hr
in
rain 24hr
in
rain mn
in
humidity
%
barometer
mb
20200408160627 75 79 0.0 4.0 0.00 0.35 0.17 59 1002.4
20200408160129 75 173 0.0 6.0 0.00 0.35 0.17 59 1002.5
20200408155621 75 307 2.0 6.0 0.00 0.35 0.17 60 1002.5
20200408155141 74 286 3.0 5.0 0.00 0.35 0.17 60 1002.5
20200408154629 74 308 1.0 5.0 0.01 0.35 0.17 60 1002.5
20200408154132 74 356 2.0 7.0 0.01 0.35 0.17 59 1002.5
20200408153618 74 321 2.0 7.0 0.01 0.35 0.17 65 1002.6
20200408153130 74 1 2.0 5.0 0.01 0.35 0.17 61 1002.6
20200408152625 74 329 2.0 5.0 0.01 0.35 0.17 62 1002.7
20200408152128 73 208 0.0 4.0 0.01 0.35 0.17 61 1002.7
20200408151623 73 203 1.0 4.0 0.01 0.35 0.17 62 1002.7
20200408151126 72 182 2.0 5.0 0.01 0.35 0.17 67 1002.7
20200408150629 71 139 1.0 5.0 0.01 0.35 0.17 66 1002.7
20200408150134 70 199 2.0 5.0 0.01 0.35 0.17 66 1002.7
20200408145636 70 60 2.0 6.0 0.01 0.35 0.17 66 1002.7
20200408145137 70 255 2.0 6.0 0.01 0.35 0.17 63 1002.8
20200408144622 70 248 2.0 5.0 0.00 0.34 0.16 65 1002.7
20200408144128 69 170 1.0 4.0 0.00 0.34 0.16 67 1002.6
20200408143633 69 127 1.0 4.0 0.00 0.34 0.16 67 1002.6
20200408143120 68 154 1.0 5.0 0.00 0.34 0.16 72 1002.6
20200408142635 68 163 2.0 5.0 0.00 0.34 0.16 69 1002.6
20200408142138 67 165 2.0 3.0 0.00 0.34 0.16 71 1002.6
20200408141621 66 183 0.0 3.0 0.00 0.34 0.16 75 1002.5
20200408141126 65 184 1.0 3.0 0.00 0.34 0.16 75 1002.5
20200408140628 64 199 1.0 3.0 0.00 0.34 0.16 77 1002.5
20200408140119 64 203 0.0 0.0 0.00 0.34 0.16 84 1002.4
20200408135621 64 203 0.0 1.0 0.00 0.34 0.16 84 1002.4
20200408135121 63 177 0.0 1.0 0.00 0.34 0.16 80 1002.3
20200408134632 63 185 0.0 0.0 0.00 0.34 0.16 80 1002.2
20200408134134 62 185 0.0 0.0 0.00 0.34 0.16 78 1002.3
20200408133639 62 184 0.0 0.0 0.00 0.34 0.16 83 1002.2
20200408133122 62 202 0.0 0.0 0.00 0.34 0.16 86 1002.1
20200408132628 62 202 0.0 0.0 0.00 0.34 0.16 85 1002.1
20200408132118 61 203 0.0 0.0 0.00 0.34 0.16 85 1002.1
20200408131618 61 203 0.0 0.0 0.00 0.34 0.16 84 1002.1
20200408131125 60 205 0.0 0.0 0.00 0.34 0.16 85 1002.0
20200408130630 60 205 0.0 0.0 0.00 0.34 0.16 86 1002.0
20200408130137 60 205 0.0 0.0 0.00 0.34 0.16 86 1002.1
20200408125637 59 239 0.0 0.0 0.00 0.34 0.16 85 1002.1
20200408125124 58 224 0.0 0.0 0.00 0.34 0.16 88 1002.1
20200408124630 58 221 0.0 0.0 0.00 0.34 0.16 91 1002.0
20200408124136 58 221 0.0 0.0 0.00 0.34 0.16 91 1002.0
20200408123621 57 224 0.0 0.0 0.00 0.34 0.16 92 1002.3
20200408123123 57 224 0.0 0.0 0.00 0.34 0.16 93 1002.1
20200408122630 57 262 0.0 0.0 0.00 0.34 0.16 93 1002.1
20200408122115 57 195 0.0 0.0 0.00 0.34 0.16 93 1002.0
20200408121632 57 198 0.0 0.0 0.00 0.34 0.16 93 1002.0
20200408121128 57 254 0.0 0.0 0.01 0.34 0.16 93 1001.9
20200408120631 56 259 0.0 0.0 0.01 0.34 0.16 94 1001.8
20200408120116 56 212 0.0 0.0 0.02 0.34 0.16 94 1001.8
20200408115636 56 212 0.0 0.0 0.02 0.34 0.16 93 1001.7
20200408115124 56 212 0.0 4.0 0.03 0.34 0.16 94 1001.6
20200408114629 56 236 1.0 4.0 0.03 0.34 0.16 94 1001.5
20200408114131 57 231 0.0 0.0 0.04 0.34 0.16 94 1001.5
20200408113634 56 249 0.0 0.0 0.04 0.34 0.16 94 1001.8
20200408113137 56 246 0.0 0.0 0.05 0.34 0.16 95 1001.9
20200408112640 56 338 0.0 0.0 0.05 0.34 0.16 95 1001.7
20200408112124 56 186 0.0 0.0 0.06 0.34 0.16 95 1000.1
20200408111629 56 230 0.0 0.0 0.06 0.34 0.16 94 1002.2
20200408111123 56 224 0.0 3.0 0.05 0.33 0.15 94 1002.4
20200408110622 57 207 1.0 5.0 0.06 0.33 0.15 94 1002.9
20200408110133 57 238 0.0 5.0 0.05 0.32 0.14 94 1003.4
20200408105637 57 252 0.0 4.0 0.06 0.32 0.14 94 1003.8
20200408105121 56 212 1.0 7.0 0.06 0.31 0.13 96 1004.2
20200408104628 56 296 4.0 10.0 0.06 0.31 0.13 97 1004.4
20200408104135 55 217 3.0 10.0 0.05 0.30 0.12 97 1004.4
20200408103619 55 250 1.0 4.0 0.05 0.30 0.12 97 1004.5
20200408103129 55 256 0.0 3.0 0.04 0.29 0.11 97 1004.5
20200408102635 55 257 1.0 3.0 0.04 0.28 0.10 97 1004.6
20200408102124 55 291 0.0 0.0 0.05 0.28 0.10 97 1004.6
20200408101631 55 292 0.0 0.0 0.05 0.28 0.10 96 1004.4
20200408101139 55 286 0.0 0.0 0.05 0.28 0.10 96 1004.5
20200408100635 56 286 0.0 0.0 0.04 0.27 0.09 95 1004.8
20200408100117 56 291 0.0 0.0 0.04 0.27 0.09 95 1004.7
20200408095625 56 284 0.0 0.0 0.04 0.26 0.08 95 1004.4
20200408095129 56 284 0.0 0.0 0.03 0.25 0.07 94 1004.2
20200408094634 56 283 0.0 0.0 0.03 0.25 0.07 94 1003.9
20200408094121 56 226 0.0 0.0 0.04 0.25 0.07 94 1003.9
20200408093625 56 226 0.0 0.0 0.05 0.25 0.07 93 1003.6
20200408093130 57 27 0.0 0.0 0.06 0.25 0.07 93 1003.5
20200408092637 57 31 0.0 0.0 0.05 0.24 0.06 93 1003.7
20200408092135 57 280 0.0 4.0 0.05 0.23 0.05 93 1003.6
20200408091631 57 11 1.0 4.0 0.05 0.23 0.05 93 1003.6
20200408091134 57 346 0.0 0.0 0.05 0.23 0.05 93 1003.6
20200408090639 56 345 0.0 0.0 0.05 0.23 0.05 93 1003.5
20200408090120 57 37 0.0 0.0 0.05 0.23 0.05 93 1003.4
20200408085622 57 331 0.0 0.0 0.04 0.22 0.04 93 1003.5
20200408085121 57 360 0.0 0.0 0.04 0.22 0.04 93 1003.9
20200408084623 57 330 0.0 0.0 0.04 0.22 0.04 93 1003.8
20200408084130 57 111 0.0 0.0 0.03 0.21 0.03 93 1004.1
20200408083634 58 329 0.0 0.0 0.02 0.20 0.02 94 1004.5
20200408083140 57 307 0.0 0.0 0.01 0.19 0.01 98 1004.2
20200408082629 57 336 0.0 0.0 0.01 0.19 0.01 99 1003.6
20200408082136 55 360 0.0 0.0 0.00 0.18 0.00 100 1003.6
20200408081621 53 32 0.0 0.0 0.00 0.18 0.00 99 1002.4
20200408081125 54 206 0.0 0.0 0.00 0.18 0.00 99 1001.0
20200408080629 53 211 0.0 0.0 0.00 0.18 0.00 99 1000.7
20200408080116 53 212 0.0 0.0 0.00 0.18 0.00 99 1000.4
20200408075624 52 212 0.0 0.0 0.00 0.18 0.00 99 1000.2
20200408075123 53 254 0.0 0.0 0.00 0.18 0.00 99 1000.2
20200408074633 53 254 0.0 0.0 0.00 0.18 0.00 99 1000.4
20200408074120 52 237 0.0 0.0 0.00 0.18 0.00 99 1000.2
20200408073634 52 230 0.0 0.0 0.00 0.18 0.00 99 1000.1
20200408073118 52 232 0.0 0.0 0.00 0.18 0.00 99 1000.3
20200408072628 52 232 0.0 0.0 0.00 0.18 0.00 99 1000.4
20200408072131 51 232 0.0 0.0 0.00 0.18 0.00 99 1000.5
20200408071640 51 233 0.0 0.0 0.00 0.18 0.00 99 1000.5
20200408071123 51 232 0.0 0.0 0.00 0.18 0.00 99 1000.7
20200408070629 52 232 0.0 0.0 0.00 0.18 0.00 99 1000.8
20200408070136 51 232 0.0 0.0 0.00 0.18 0.00 99 1000.7
20200408065623 51 232 0.0 0.0 0.00 0.18 0.00 99 1000.7
20200408065137 51 232 0.0 2.0 0.00 0.18 0.00 98 1000.9
20200408064623 51 200 1.0 2.0 0.00 0.18 0.00 99 1000.9
20200408064130 52 223 0.0 0.0 0.00 0.18 0.00 99 1000.9
20200408063617 52 224 0.0 0.0 0.00 0.18 0.00 99 1001.2
20200408063128 52 223 0.0 0.0 0.00 0.18 0.00 99 1001.2
20200408062633 52 222 0.0 0.0 0.00 0.18 0.00 99 1001.4
20200408062124 52 222 0.0 0.0 0.00 0.18 0.00 99 1001.5
20200408061630 52 217 0.0 0.0 0.00 0.18 0.00 98 1001.7
20200408061133 52 217 0.0 0.0 0.00 0.18 0.18 98 1001.8
20200408060618 53 217 0.0 0.0 0.00 0.18 0.18 99 1002.0
20200408060124 53 217 0.0 0.0 0.00 0.18 0.18 99 1002.1
20200408055632 53 217 0.0 0.0 0.00 0.18 0.18 98 1002.3
20200408055137 53 217 0.0 0.0 0.00 0.18 0.18 98 1002.4
20200408054629 53 217 0.0 0.0 0.00 0.18 0.18 98 1002.4
20200408054129 53 217 0.0 0.0 0.00 0.18 0.18 98 1002.6
20200408053632 53 217 0.0 0.0 0.00 0.18 0.18 98 1002.7
20200408053140 53 217 0.0 0.0 0.00 0.18 0.18 98 1002.9
20200408052622 54 217 0.0 0.0 0.00 0.18 0.18 98 1002.9
20200408052130 54 195 0.0 0.0 0.00 0.18 0.18 98 1003.0
20200408051622 54 195 0.0 0.0 0.00 0.18 0.18 99 1003.1
20200408051122 54 195 0.0 0.0 0.00 0.18 0.18 99 1003.3
20200408050629 54 195 0.0 0.0 0.00 0.18 0.18 98 1003.5
20200408050124 54 195 0.0 0.0 0.00 0.18 0.18 98 1003.6
20200408045622 54 195 0.0 0.0 0.00 0.18 0.18 98 1003.8
20200408045128 54 195 0.0 0.0 0.00 0.18 0.18 98 1004.0
20200408044634 54 195 0.0 0.0 0.00 0.18 0.18 98 1004.2
20200408044119 54 195 0.0 0.0 0.00 0.18 0.18 98 1004.2
20200408043626 54 195 0.0 0.0 0.00 0.18 0.18 98 1004.3
20200408043130 55 195 0.0 0.0 0.00 0.18 0.18 98 1004.4
20200408042634 55 195 0.0 0.0 0.00 0.18 0.18 98 1004.5
20200408042139 55 195 0.0 0.0 0.00 0.18 0.18 98 1004.6
20200408041625 55 195 0.0 0.0 0.00 0.18 0.18 98 1004.7
20200408041137 55 195 0.0 0.0 0.00 0.18 0.18 98 1004.8
20200408040638 55 195 0.0 0.0 0.00 0.18 0.18 98 1004.8
20200408040123 56 195 0.0 0.0 0.00 0.18 0.18 98 1005.0
20200408035628 56 195 0.0 0.0 0.00 0.18 0.18 98 1005.2
20200408035133 56 195 0.0 0.0 0.00 0.18 0.18 98 1005.3
20200408034639 56 195 0.0 0.0 0.00 0.18 0.18 98 1005.3
20200408034119 56 195 0.0 0.0 0.00 0.18 0.18 98 1005.3
20200408033634 56 195 0.0 0.0 0.00 0.18 0.18 98 1005.5
20200408033139 56 195 0.0 0.0 0.00 0.18 0.18 98 1005.7
20200408032622 55 195 0.0 0.0 0.00 0.18 0.18 97 1005.7
20200408032133 56 195 0.0 0.0 0.00 0.18 0.18 98 1005.6
20200408031640 56 195 0.0 0.0 0.00 0.18 0.18 97 1005.6
20200408031122 56 195 0.0 0.0 0.00 0.18 0.18 97 1005.7
20200408030633 56 195 0.0 0.0 0.00 0.18 0.18 97 1005.9
20200408030115 56 195 0.0 0.0 0.00 0.18 0.18 97 1006.0
20200408025620 56 195 0.0 0.0 0.00 0.18 0.18 97 1006.2
20200408025124 56 195 0.0 0.0 0.00 0.18 0.18 97 1006.3
20200408024633 56 195 0.0 0.0 0.00 0.18 0.18 96 1006.4
20200408024136 56 195 0.0 0.0 0.00 0.18 0.18 96 1006.5
20200408023637 57 195 0.0 0.0 0.00 0.18 0.18 96 1006.6
20200408023124 57 195 0.0 0.0 0.00 0.18 0.18 96 1006.7
20200408022619 57 195 0.0 0.0 0.00 0.18 0.18 96 1006.8
20200408022128 57 195 0.0 0.0 0.00 0.18 0.18 96 1006.8
20200408021633 58 195 0.0 0.0 0.00 0.18 0.18 95 1006.9
20200408021139 58 195 0.0 0.0 0.00 0.18 0.18 95 1006.9
20200408020623 58 195 0.0 0.0 0.00 0.18 0.18 95 1007.1
20200408020125 58 195 0.0 0.0 0.00 0.18 0.18 95 1007.1
20200408015625 58 195 0.0 0.0 0.00 0.18 0.18 95 1007.2
20200408015126 59 195 0.0 0.0 0.00 0.18 0.18 94 1007.2
20200408014635 59 195 0.0 0.0 0.00 0.18 0.18 94 1007.1
20200408014134 59 195 0.0 0.0 0.00 0.18 0.18 93 1007.2
20200408013633 59 195 0.0 0.0 0.00 0.18 0.18 93 1007.4
20200408013134 59 195 0.0 0.0 0.00 0.18 0.18 93 1007.3
20200408012626 60 195 0.0 0.0 0.00 0.18 0.18 93 1007.4
20200408012129 60 195 0.0 0.0 0.00 0.18 0.18 92 1007.5
20200408011638 60 195 0.0 0.0 0.00 0.18 0.18 92 1007.5
20200408011122 61 195 0.0 0.0 0.00 0.18 0.18 92 1007.5
20200408010627 61 195 0.0 0.0 0.00 0.18 0.18 91 1007.5
20200408010131 61 195 0.0 0.0 0.00 0.18 0.18 91 1007.6
20200408005632 61 195 0.0 0.0 0.00 0.18 0.18 91 1007.5
20200408005132 61 194 0.0 0.0 0.00 0.18 0.18 91 1007.5
20200408004635 60 192 0.0 0.0 0.00 0.18 0.18 92 1007.6
20200408004137 60 191 0.0 0.0 0.00 0.18 0.18 92 1007.7
20200408003639 61 191 0.0 0.0 0.00 0.18 0.18 91 1007.7
20200408003123 61 191 0.0 0.0 0.00 0.18 0.18 91 1007.6
20200408002638 61 191 0.0 1.0 0.00 0.18 0.18 91 1007.7
20200408002123 61 191 0.0 1.0 0.00 0.18 0.18 90 1007.7
20200408001622 61 191 0.0 0.0 0.00 0.18 0.18 91 1007.6
20200408001128 61 191 0.0 0.0 0.00 0.18 0.18 90 1007.7
20200408000627 62 191 0.0 0.0 0.00 0.18 0.18 90 1007.9
20200408000132 62 191 0.0 0.0 0.00 0.18 0.18 89 1007.7
20200407235632 62 191 0.0 0.0 0.00 0.18 0.18 89 1007.7
20200407235138 62 191 0.0 0.0 0.00 0.18 0.18 88 1007.8
20200407234623 62 191 0.0 0.0 0.00 0.18 0.18 89 1007.7
20200407234128 63 191 0.0 0.0 0.00 0.18 0.18 88 1007.5
20200407233627 63 191 0.0 0.0 0.00 0.18 0.18 88 1007.6
20200407233131 63 191 0.0 0.0 0.00 0.18 0.18 86 1007.8
20200407232634 64 191 0.0 0.0 0.00 0.18 0.18 86 1007.8
20200407232122 64 191 0.0 0.0 0.00 0.18 0.18 84 1007.8
20200407231635 64 191 0.0 0.0 0.00 0.18 0.18 83 1008.0
20200407231129 65 191 0.0 0.0 0.00 0.18 0.18 82 1008.0
20200407230632 65 191 0.0 0.0 0.00 0.18 0.18 81 1008.0
20200407230137 65 191 0.0 0.0 0.00 0.18 0.18 81 1008.0
20200407225636 65 191 0.0 0.0 0.00 0.18 0.18 80 1007.9
20200407225121 66 192 0.0 0.0 0.00 0.18 0.18 80 1008.0
20200407224626 66 111 0.0 0.0 0.00 0.18 0.18 80 1008.1
20200407224129 66 111 0.0 0.0 0.00 0.18 0.18 84 1008.0
20200407223632 66 111 0.0 0.0 0.00 0.18 0.18 83 1008.1
20200407223116 66 111 0.0 0.0 0.00 0.18 0.18 80 1008.1
20200407222625 65 111 0.0 0.0 0.00 0.18 0.18 81 1008.1
20200407222136 65 111 0.0 0.0 0.00 0.18 0.18 83 1008.0
20200407221622 65 111 0.0 0.0 0.00 0.18 0.18 83 1008.1
20200407221126 65 111 0.0 0.0 0.00 0.18 0.18 82 1008.0
20200407220629 65 110 0.0 0.0 0.00 0.18 0.18 83 1007.9
20200407220131 65 110 0.0 0.0 0.00 0.18 0.18 84 1007.9
20200407215634 65 110 0.0 0.0 0.00 0.18 0.18 85 1007.8
20200407215121 65 110 0.0 0.0 0.00 0.18 0.18 84 1007.9
20200407214627 66 110 0.0 0.0 0.00 0.18 0.18 84 1008.0
20200407214134 66 110 0.0 0.0 0.00 0.18 0.18 82 1008.0
20200407213633 65 110 0.0 0.0 0.00 0.18 0.18 83 1008.0
20200407213120 65 110 0.0 4.0 0.00 0.18 0.18 85 1008.0
20200407212626 65 110 0.0 4.0 0.00 0.18 0.18 85 1008.1
20200407212133 65 130 0.0 2.0 0.00 0.18 0.18 86 1008.2
20200407211623 65 132 0.0 4.0 0.00 0.18 0.18 87 1008.2
20200407211126 65 221 0.0 1.0 0.01 0.18 0.18 89 1008.2
20200407210640 64 224 0.0 0.0 0.02 0.18 0.18 90 1008.2
20200407210115 64 250 0.0 0.0 0.05 0.18 0.18 90 1008.1
20200407205621 63 250 0.0 0.0 0.05 0.18 0.18 90 1008.2
20200407205126 63 250 0.0 0.0 0.05 0.18 0.18 88 1008.4
20200407204632 63 250 0.0 0.0 0.05 0.18 0.18 89 1008.6
20200407204132 63 245 0.0 0.0 0.05 0.18 0.18 91 1008.7
20200407203634 64 254 0.0 2.0 0.05 0.18 0.18 87 1008.8
20200407203135 64 306 0.0 2.0 0.05 0.18 0.18 89 1008.8
20200407202639 63 307 0.0 1.0 0.05 0.18 0.18 92 1008.4
20200407202120 62 317 0.0 4.0 0.05 0.18 0.18 93 1008.5
20200407201625 62 250 0.0 0.0 0.05 0.18 0.18 90 1008.3
20200407201128 63 200 0.0 0.0 0.03 0.16 0.16 86 1008.1
20200407200633 64 360 0.0 0.0 0.02 0.15 0.15 82 1009.6
20200407200131 64 328 0.0 0.0 0.00 0.13 0.13 80 1010.0
20200407195636 64 335 0.0 0.0 0.00 0.13 0.13 83 1009.9
20200407195138 64 314 0.0 0.0 0.00 0.13 0.13 83 1009.8
20200407194622 64 8 0.0 0.0 0.08 0.13 0.13 85 1009.8
20200407194119 65 83 0.0 6.0 0.12 0.13 0.13 84 1009.9
20200407193626 65 47 1.0 6.0 0.13 0.13 0.13 86 1009.8
20200407193131 64 60 3.0 5.0 0.13 0.13 0.13 88 1009.7
20200407192634 64 39 0.0 1.0 0.13 0.13 0.13 89 1009.9
20200407192130 64 82 0.0 1.0 0.13 0.13 0.13 89 1010.0
20200407191626 63 49 0.0 1.0 0.13 0.13 0.13 92 1010.1
20200407191134 63 84 0.0 0.0 0.13 0.13 0.13 94 1010.2
20200407190632 62 117 0.0 0.0 0.13 0.13 0.13 93 1010.3
20200407190132 61 75 0.0 0.0 0.13 0.13 0.13 93 1010.4
20200407185625 61 63 0.0 0.0 0.13 0.13 0.13 91 1010.6
20200407185136 61 20 0.0 0.0 0.13 0.13 0.13 89 1010.5
20200407184620 62 13 0.0 0.0 0.05 0.05 0.05 85 1011.0
20200407184126 65 1 0.0 0.0 0.01 0.01 0.01 79 1010.9
20200407183633 68 306 0.0 0.0 0.00 0.00 0.00 71 1011.0
20200407183116 71 95 0.0 0.0 0.00 0.00 0.00 62 1010.6
20200407182627 72 1 0.0 0.0 0.00 0.00 0.00 58 1010.4
20200407182129 72 308 0.0 0.0 0.00 0.00 0.00 57 1010.2
20200407181637 72 247 0.0 0.0 0.00 0.00 0.00 57 1010.1
20200407181122 72 274 0.0 0.0 0.00 0.00 0.00 56 1009.9
20200407180625 72 252 0.0 3.0 0.00 0.00 0.00 58 1010.1
20200407180119 73 252 0.0 3.0 0.00 0.00 0.00 56 1010.0
20200407175635 73 229 0.0 3.0 0.00 0.00 0.00 55 1010.1
20200407175125 73 360 0.0 5.0 0.00 0.00 0.00 53 1010.2
20200407174625 73 233 0.0 9.0 0.00 0.00 0.00 55 1010.2
20200407174127 74 360 5.0 9.0 0.00 0.00 0.00 53 1010.2
20200407173634 74 274 2.0 6.0 0.00 0.00 0.00 53 1010.3
20200407173137 74 225 4.0 7.0 0.00 0.00 0.00 54 1010.4
20200407172624 74 360 4.0 8.0 0.00 0.00 0.00 52 1010.4
20200407172127 75 274 3.0 8.0 0.00 0.00 0.00 51 1010.5
20200407171633 75 347 3.0 8.0 0.00 0.00 0.00 52 1010.6
20200407171134 75 360 1.0 11.0 0.00 0.00 0.00 52 1010.8
20200407170633 75 253 4.0 11.0 0.00 0.00 0.00 52 1010.9
20200407170136 75 212 4.0 9.0 0.00 0.00 0.00 54 1011.0
20200407165624 74 360 6.0 8.0 0.00 0.00 0.00 55 1011.2
20200407165140 74 223 2.0 5.0 0.00 0.00 0.00 55 1011.3
20200407164627 74 360 0.0 5.0 0.00 0.00 0.00 55 1011.4
20200407164125 75 324 3.0 5.0 0.00 0.00 0.00 53 1011.3
20200407163628 74 251 1.0 7.0 0.00 0.00 0.00 56 1011.5
20200407163135 73 192 1.0 9.0 0.00 0.00 0.00 61 1011.7
20200407162616 72 279 4.0 9.0 0.00 0.00 0.00 57 1011.9
20200407162126 72 242 2.0 5.0 0.00 0.00 0.00 57 1012.1
20200407161629 72 253 0.0 4.0 0.00 0.00 0.00 58 1012.1
20200407161138 72 345 1.0 7.0 0.00 0.00 0.00 56 1012.2